createdAt,value
2022-08-28T00:00:00.672Z,13.79
2022-08-28T00:02:27.634Z,13.82
2022-08-28T00:04:54.747Z,13.53
2022-08-28T00:07:21.295Z,13.58
2022-08-28T00:09:47.760Z,13.45
2022-08-28T00:12:14.504Z,13.57
2022-08-28T00:14:41.189Z,13.65
2022-08-28T00:17:07.839Z,13.54
2022-08-28T00:19:38.500Z,13.67
2022-08-28T00:22:06.543Z,13.76
2022-08-28T00:24:33.891Z,13.72
2022-08-28T00:27:18.970Z,13.55
2022-08-28T00:29:45.446Z,13.65
2022-08-28T00:32:11.944Z,13.50
2022-08-28T00:34:39.050Z,13.38
2022-08-28T00:37:06.334Z,13.79
2022-08-28T00:39:32.961Z,13.47
2022-08-28T00:41:59.495Z,13.72
2022-08-28T00:44:28.020Z,13.44
2022-08-28T00:46:56.856Z,13.64
2022-08-28T00:49:29.531Z,13.54
2022-08-28T00:52:15.951Z,13.59
2022-08-28T00:54:58.387Z,13.80
2022-08-28T00:57:37.147Z,13.37
2022-08-28T01:00:08.108Z,13.38
2022-08-28T01:02:34.674Z,13.41
2022-08-28T01:05:01.227Z,13.62
2022-08-28T01:07:28.430Z,13.51
2022-08-28T01:09:55.845Z,13.51
2022-08-28T01:12:28.344Z,13.41
2022-08-28T01:15:01.179Z,13.46
2022-08-28T01:17:31.175Z,13.45
2022-08-28T01:20:02.996Z,13.31
2022-08-28T01:22:37.261Z,13.44
2022-08-28T01:25:08.127Z,13.51
2022-08-28T01:27:34.790Z,13.20
2022-08-28T01:30:01.509Z,13.36
2022-08-28T01:32:30.383Z,13.28
2022-08-28T01:34:56.855Z,13.15
2022-08-28T01:37:23.311Z,13.37
2022-08-28T01:39:50.114Z,13.31
2022-08-28T01:42:17.253Z,13.50
2022-08-28T01:44:43.703Z,13.15
2022-08-28T01:47:10.171Z,13.08
2022-08-28T01:49:36.951Z,13.13
2022-08-28T01:52:04.664Z,13.08
2022-08-28T01:54:31.592Z,13.12
2022-08-28T01:56:58.504Z,13.26
2022-08-28T01:59:25.022Z,13.22
2022-08-28T02:01:51.559Z,13.12
2022-08-28T02:04:18.092Z,13.03
2022-08-28T02:06:44.623Z,12.94
2022-08-28T02:09:14.747Z,13.04
2022-08-28T02:11:46.432Z,12.92
2022-08-28T02:14:13.680Z,12.81
2022-08-28T02:16:40.214Z,12.79
2022-08-28T02:19:06.670Z,13.02
2022-08-28T02:21:33.319Z,13.22
2022-08-28T02:23:59.896Z,12.92
2022-08-28T02:26:28.343Z,12.85
2022-08-28T02:28:54.963Z,12.67
2022-08-28T02:31:21.438Z,12.94
2022-08-28T02:33:48.122Z,12.82
2022-08-28T02:36:15.808Z,12.72
2022-08-28T02:38:44.567Z,12.99
2022-08-28T02:41:12.080Z,12.75
2022-08-28T02:43:39.580Z,12.83
2022-08-28T02:46:07.138Z,12.88
2022-08-28T02:48:36.403Z,12.66
2022-08-28T02:51:07.185Z,12.67
2022-08-28T02:53:33.732Z,12.80
2022-08-28T02:56:02.869Z,12.62
2022-08-28T02:58:32.236Z,12.35
2022-08-28T03:01:01.601Z,12.27
2022-08-28T03:03:31.167Z,12.24
2022-08-28T03:05:59.872Z,12.14
2022-08-28T03:08:27.461Z,12.06
2022-08-28T03:10:54.336Z,12.00
2022-08-28T03:13:26.807Z,12.03
2022-08-28T03:15:55.685Z,12.03
2022-08-28T03:18:24.384Z,12.00
2022-08-28T03:20:52.310Z,11.96
2022-08-28T03:23:27.816Z,11.84
2022-08-28T03:25:58.222Z,11.89
2022-08-28T03:28:26.941Z,11.86
2022-08-28T03:30:54.276Z,11.79
2022-08-28T03:33:21.084Z,11.78
2022-08-28T03:35:47.840Z,11.86
2022-08-28T03:38:14.536Z,11.89
2022-08-28T03:40:44.710Z,11.66
2022-08-28T03:43:14.952Z,11.63
2022-08-28T03:45:41.589Z,11.53
2022-08-28T03:48:08.215Z,11.54
2022-08-28T03:50:36.018Z,11.55
2022-08-28T03:53:02.783Z,11.63
2022-08-28T03:55:29.363Z,11.63
2022-08-28T03:57:55.930Z,11.55
2022-08-28T04:00:22.463Z,11.73
2022-08-28T04:02:48.925Z,11.59
2022-08-28T04:05:16.664Z,11.75
2022-08-28T04:07:43.542Z,11.71
2022-08-28T04:10:10.312Z,11.92
2022-08-28T04:12:37.124Z,11.75
2022-08-28T04:15:06.424Z,11.68
2022-08-28T04:17:33.562Z,11.60
2022-08-28T04:20:00.020Z,11.67
2022-08-28T04:22:26.475Z,11.42
2022-08-28T04:24:53.655Z,11.36
2022-08-28T04:27:20.336Z,11.43
2022-08-28T04:29:48.159Z,11.64
2022-08-28T04:32:14.746Z,11.69
2022-08-28T04:34:41.263Z,11.88
2022-08-28T04:37:07.865Z,11.81
2022-08-28T04:39:34.450Z,11.62
2022-08-28T04:42:00.990Z,11.56
2022-08-28T04:44:27.658Z,11.49
2022-08-28T04:46:54.331Z,11.44
2022-08-28T04:49:22.834Z,11.44
2022-08-28T04:51:52.443Z,11.59
2022-08-28T04:54:18.976Z,11.59
2022-08-28T04:56:46.248Z,11.71
2022-08-28T04:59:13.305Z,11.63
2022-08-28T05:01:42.490Z,11.56
2022-08-28T05:04:11.247Z,11.52
2022-08-28T05:06:43.364Z,11.62
2022-08-28T05:09:09.826Z,11.80
2022-08-28T05:11:36.294Z,11.88
2022-08-28T05:14:05.620Z,11.74
2022-08-28T05:16:34.464Z,11.98
2022-08-28T05:19:02.116Z,12.00
2022-08-28T05:21:28.658Z,11.95
2022-08-28T05:23:57.711Z,12.01
2022-08-28T05:26:26.859Z,12.09
2022-08-28T05:28:55.831Z,12.41
2022-08-28T05:31:26.524Z,12.35
2022-08-28T05:33:53.742Z,12.48
2022-08-28T05:36:22.614Z,12.65
2022-08-28T05:38:50.606Z,12.64
2022-08-28T05:41:24.351Z,12.77
2022-08-28T05:43:52.876Z,12.76
2022-08-28T05:46:20.607Z,12.99
2022-08-28T05:48:49.321Z,12.98
2022-08-28T05:51:22.370Z,13.14
2022-08-28T05:53:49.824Z,13.11
2022-08-28T05:56:22.321Z,13.34
2022-08-28T05:58:48.966Z,13.58
2022-08-28T06:01:19.450Z,13.51
2022-08-28T06:03:55.748Z,13.57
2022-08-28T06:06:24.551Z,13.67
2022-08-28T06:08:56.361Z,13.57
2022-08-28T06:11:30.396Z,13.78
2022-08-28T06:14:03.054Z,14.00
2022-08-28T06:16:31.656Z,13.81
2022-08-28T06:18:58.633Z,13.91
2022-08-28T06:21:25.099Z,13.94
2022-08-28T06:23:51.915Z,14.02
2022-08-28T06:26:18.781Z,14.35
2022-08-28T06:28:45.400Z,14.53
2022-08-28T06:31:24.348Z,14.83
2022-08-28T06:33:57.570Z,14.83
2022-08-28T06:36:28.814Z,14.79
2022-08-28T06:38:58.358Z,14.66
2022-08-28T06:41:26.481Z,14.82
2022-08-28T06:43:53.474Z,15.12
2022-08-28T06:46:20.089Z,15.27
2022-08-28T06:48:46.602Z,15.18
2022-08-28T06:51:14.042Z,15.28
2022-08-28T06:53:42.889Z,15.43
2022-08-28T06:56:26.157Z,15.24
2022-08-28T06:58:55.800Z,15.55
2022-08-28T07:01:32.607Z,15.62
2022-08-28T07:04:01.735Z,15.82
2022-08-28T07:06:32.306Z,15.94
2022-08-28T07:08:58.925Z,15.99
2022-08-28T07:11:28.839Z,16.03
2022-08-28T07:13:56.342Z,16.04
2022-08-28T07:16:26.584Z,16.18
2022-08-28T07:18:53.429Z,16.14
2022-08-28T07:21:20.659Z,16.28
2022-08-28T07:23:48.002Z,16.40
2022-08-28T07:26:17.675Z,16.43
2022-08-28T07:28:45.414Z,16.55
2022-08-28T07:31:21.050Z,16.58
2022-08-28T07:33:47.686Z,16.54
2022-08-28T07:36:29.881Z,16.75
2022-08-28T07:38:58.395Z,16.97
2022-08-28T07:41:29.535Z,17.10
2022-08-28T07:44:15.111Z,16.98
2022-08-28T07:46:41.793Z,17.08
2022-08-28T07:49:09.397Z,16.81
2022-08-28T07:51:36.410Z,17.06
2022-08-28T07:54:04.002Z,16.98
2022-08-28T07:56:32.036Z,16.85
2022-08-28T07:59:00.584Z,17.10
2022-08-28T08:01:30.770Z,17.21
2022-08-28T08:04:01.592Z,17.47
2022-08-28T08:06:33.778Z,17.37
2022-08-28T08:09:02.368Z,17.48
2022-08-28T08:11:32.585Z,17.76
2022-08-28T08:14:04.672Z,17.96
2022-08-28T08:16:41.443Z,18.21
2022-08-28T08:19:09.978Z,17.81
2022-08-28T08:21:37.435Z,17.52
2022-08-28T08:24:04.564Z,17.37
2022-08-28T08:26:31.479Z,17.48
2022-08-28T08:28:59.556Z,17.80
2022-08-28T08:31:35.406Z,17.86
2022-08-28T08:34:04.543Z,18.02
2022-08-28T08:36:33.531Z,18.08
2022-08-28T08:39:00.802Z,18.09
2022-08-28T08:41:32.733Z,18.23
2022-08-28T08:44:33.371Z,18.50
2022-08-28T08:47:14.982Z,18.86
2022-08-28T08:49:50.249Z,18.85
2022-08-28T08:52:35.643Z,18.54
2022-08-28T08:55:15.390Z,18.88
2022-08-28T08:57:44.289Z,18.41
2022-08-28T09:00:16.034Z,18.95
2022-08-28T09:03:05.067Z,19.64
2022-08-28T09:06:02.196Z,19.00
2022-08-28T09:08:42.931Z,19.23
2022-08-28T09:11:36.191Z,19.76
2022-08-28T09:14:14.300Z,19.32
2022-08-28T09:16:46.744Z,19.26
2022-08-28T09:19:18.827Z,19.30
2022-08-28T09:21:46.682Z,19.92
2022-08-28T09:24:28.917Z,19.41
2022-08-28T09:27:04.098Z,19.08
2022-08-28T09:29:32.930Z,19.43
2022-08-28T09:32:22.493Z,18.89
2022-08-28T09:35:24.603Z,19.14
2022-08-28T09:37:51.211Z,19.08
2022-08-28T09:40:23.253Z,19.09
2022-08-28T09:43:31.388Z,19.41
2022-08-28T09:46:09.733Z,19.24
2022-08-28T09:48:44.484Z,18.93
2022-08-28T09:51:26.791Z,19.33
2022-08-28T09:53:56.459Z,19.55
2022-08-28T09:56:28.993Z,19.50
2022-08-28T09:59:17.842Z,19.56
2022-08-28T10:01:51.524Z,19.50
2022-08-28T10:04:48.677Z,19.55
2022-08-28T10:07:38.169Z,19.59
2022-08-28T10:10:18.189Z,19.42
2022-08-28T10:12:53.951Z,19.31
2022-08-28T10:15:49.528Z,19.44
2022-08-28T10:18:17.393Z,19.64
2022-08-28T10:20:55.596Z,20.18
2022-08-28T10:23:22.495Z,20.45
2022-08-28T10:26:07.672Z,20.35
2022-08-28T10:29:15.550Z,20.01
2022-08-28T10:31:59.212Z,19.71
2022-08-28T10:34:38.840Z,19.51
2022-08-28T10:37:32.907Z,20.01
2022-08-28T10:40:04.590Z,19.80
2022-08-28T10:43:10.009Z,20.56
2022-08-28T10:45:38.920Z,20.79
2022-08-28T10:48:17.532Z,20.75
2022-08-28T10:50:51.452Z,20.04
2022-08-28T10:53:49.775Z,21.80
2022-08-28T10:56:21.516Z,22.39
2022-08-28T10:58:53.240Z,23.15
2022-08-28T11:01:41.886Z,22.46
2022-08-28T11:04:25.509Z,23.09
2022-08-28T11:07:01.137Z,24.24
2022-08-28T11:09:35.290Z,24.37
2022-08-28T11:12:07.464Z,22.58
2022-08-28T11:14:39.329Z,21.67
2022-08-28T11:17:27.893Z,22.15
2022-08-28T11:20:24.733Z,21.62
2022-08-28T11:22:54.247Z,22.43
2022-08-28T11:25:33.104Z,23.71
2022-08-28T11:28:14.968Z,25.87
2022-08-28T11:30:45.684Z,26.55
2022-08-28T11:33:47.771Z,26.07
2022-08-28T11:36:20.287Z,23.58
2022-08-28T11:38:55.765Z,22.92
2022-08-28T11:41:27.610Z,22.91
2022-08-28T11:44:09.324Z,24.58
2022-08-28T11:46:44.164Z,24.24
2022-08-28T11:49:29.152Z,26.10
2022-08-28T11:52:25.109Z,25.83
2022-08-28T11:55:29.798Z,25.64
2022-08-28T12:00:46.351Z,27.43
2022-08-28T12:03:33.182Z,26.55
2022-08-28T12:06:01.279Z,25.68
2022-08-28T12:08:46.949Z,24.19
2022-08-28T12:11:41.708Z,25.33
2022-08-28T12:14:33.281Z,23.61
2022-08-28T12:16:59.685Z,23.42
2022-08-28T12:19:30.979Z,24.07
2022-08-28T12:21:57.606Z,24.75
2022-08-28T12:24:24.757Z,24.54
2022-08-28T12:26:54.697Z,23.84
2022-08-28T12:29:38.423Z,22.03
2022-08-28T12:32:24.662Z,22.13
2022-08-28T12:35:00.627Z,22.32
2022-08-28T12:37:42.930Z,23.19
2022-08-28T12:40:21.783Z,23.94
2022-08-28T12:43:00.910Z,24.12
2022-08-28T12:45:39.234Z,24.43
2022-08-28T12:48:18.404Z,25.66
2022-08-28T12:50:45.039Z,25.66
2022-08-28T12:53:16.344Z,26.46
2022-08-28T12:55:45.406Z,26.58
2022-08-28T12:58:34.539Z,27.84
2022-08-28T13:01:09.627Z,27.49
2022-08-28T13:03:49.779Z,27.69
2022-08-28T13:06:24.044Z,28.94
2022-08-28T13:09:01.499Z,28.65
2022-08-28T13:11:35.018Z,28.11
2022-08-28T13:14:01.791Z,27.40
2022-08-28T13:16:46.622Z,26.20
2022-08-28T13:19:27.239Z,24.32
2022-08-28T13:22:00.487Z,24.69
2022-08-28T13:24:35.556Z,23.95
2022-08-28T13:27:16.194Z,22.90
2022-08-28T13:29:57.120Z,24.38
2022-08-28T13:32:29.476Z,23.70
2022-08-28T13:35:09.651Z,22.99
2022-08-28T13:37:49.398Z,22.13
2022-08-28T13:43:16.071Z,22.55
2022-08-28T13:45:45.285Z,22.25
2022-08-28T13:48:14.203Z,22.21
2022-08-28T13:50:45.674Z,22.27
2022-08-28T13:53:15.890Z,21.92
2022-08-28T13:55:44.468Z,21.07
2022-08-28T13:58:11.468Z,21.43
2022-08-28T14:00:43.159Z,21.11
2022-08-28T14:03:28.285Z,21.69
2022-08-28T14:05:56.105Z,21.52
2022-08-28T14:08:22.821Z,21.26
2022-08-28T14:10:49.436Z,21.38
2022-08-28T14:13:16.339Z,20.98
2022-08-28T14:15:42.860Z,21.16
2022-08-28T14:18:09.402Z,21.77
2022-08-28T14:20:38.440Z,21.61
2022-08-28T14:23:05.142Z,22.33
2022-08-28T14:25:37.121Z,22.29
2022-08-28T14:28:05.619Z,22.72
2022-08-28T14:30:32.387Z,23.95
2022-08-28T14:32:58.885Z,24.37
2022-08-28T14:35:26.087Z,23.43
2022-08-28T14:37:52.544Z,23.22
2022-08-28T14:40:19.146Z,22.85
2022-08-28T14:42:45.744Z,23.22
2022-08-28T14:45:12.213Z,23.18
2022-08-28T14:47:39.256Z,25.13
2022-08-28T14:50:06.462Z,25.41
2022-08-28T14:52:33.102Z,25.84
2022-08-28T14:54:59.721Z,26.44
2022-08-28T14:57:26.449Z,27.67
2022-08-28T14:59:52.909Z,27.02
2022-08-28T15:02:19.475Z,28.33
2022-08-28T15:04:45.937Z,29.18
2022-08-28T15:07:12.880Z,27.22
2022-08-28T15:09:41.677Z,27.10
2022-08-28T15:12:08.988Z,27.77
2022-08-28T15:14:35.934Z,26.56
2022-08-28T15:17:04.323Z,26.93
2022-08-28T15:19:31.284Z,27.07
2022-08-28T15:21:59.131Z,28.19
2022-08-28T15:24:28.739Z,25.90
2022-08-28T15:26:55.280Z,26.93
2022-08-28T15:29:21.799Z,27.27
2022-08-28T15:31:50.298Z,25.18
2022-08-28T15:34:25.427Z,27.96
2022-08-28T15:36:55.044Z,27.67
2022-08-28T15:39:42.890Z,26.35
2022-08-28T15:42:10.283Z,26.49
2022-08-28T15:44:37.386Z,26.99
2022-08-28T15:47:04.908Z,25.83
2022-08-28T15:49:36.071Z,24.36
2022-08-28T15:52:05.631Z,26.21
2022-08-28T15:54:32.474Z,25.37
2022-08-28T15:56:59.252Z,24.89
2022-08-28T15:59:25.789Z,25.18
2022-08-28T16:02:14.349Z,23.68
2022-08-28T16:04:40.938Z,24.50
2022-08-28T16:07:07.414Z,25.27
2022-08-28T16:09:34.111Z,25.74
2022-08-28T16:12:01.687Z,25.63
2022-08-28T16:14:28.270Z,23.39
2022-08-28T16:16:54.940Z,21.64
2022-08-28T16:19:21.397Z,22.56
2022-08-28T16:21:48.084Z,23.51
2022-08-28T16:24:14.600Z,21.29
2022-08-28T16:26:41.063Z,21.55
2022-08-28T16:29:07.667Z,22.93
2022-08-28T16:31:34.421Z,24.13
2022-08-28T16:34:02.919Z,24.95
2022-08-28T16:36:30.075Z,25.52
2022-08-28T16:39:03.446Z,24.66
2022-08-28T16:41:31.891Z,23.51
2022-08-28T16:43:58.478Z,23.04
2022-08-28T16:46:26.275Z,23.29
2022-08-28T16:48:53.298Z,22.71
2022-08-28T16:51:20.483Z,24.20
2022-08-28T16:53:47.708Z,24.31
2022-08-28T16:56:17.123Z,23.65
2022-08-28T16:58:45.028Z,24.23
2022-08-28T17:01:13.362Z,24.40
2022-08-28T17:03:40.444Z,22.71
2022-08-28T17:06:12.600Z,22.90
2022-08-28T17:08:39.411Z,21.94
2022-08-28T17:11:06.615Z,22.06
2022-08-28T17:13:34.280Z,22.22
2022-08-28T17:16:00.947Z,22.89
2022-08-28T17:18:27.475Z,21.87
2022-08-28T17:21:12.690Z,21.32
2022-08-28T17:23:39.303Z,20.81
2022-08-28T17:26:06.040Z,20.21
2022-08-28T17:28:32.638Z,21.21
2022-08-28T17:30:59.328Z,21.36
2022-08-28T17:33:25.820Z,21.15
2022-08-28T17:35:55.066Z,20.43
2022-08-28T17:38:21.849Z,20.18
2022-08-28T17:40:48.319Z,19.55
2022-08-28T17:43:14.825Z,18.76
2022-08-28T17:45:41.386Z,18.66
2022-08-28T17:48:08.303Z,18.33
2022-08-28T17:50:34.823Z,18.03
2022-08-28T17:53:01.392Z,17.96
2022-08-28T17:55:29.282Z,17.57
2022-08-28T17:57:55.755Z,17.68
2022-08-28T18:00:22.505Z,17.52
2022-08-28T18:02:51.906Z,17.51
2022-08-28T18:05:18.659Z,17.31
2022-08-28T18:07:45.227Z,17.22
2022-08-28T18:10:12.669Z,17.38
2022-08-28T18:12:40.479Z,17.18
2022-08-28T18:15:09.753Z,17.37
2022-08-28T18:17:38.115Z,17.22
2022-08-28T18:20:06.789Z,17.08
2022-08-28T18:22:33.640Z,16.91
2022-08-28T18:25:02.615Z,16.83
2022-08-28T18:27:31.438Z,17.13
2022-08-28T18:29:59.028Z,16.84
2022-08-28T18:32:25.652Z,16.87
2022-08-28T18:34:52.584Z,16.91
2022-08-28T18:37:19.106Z,16.99
2022-08-28T18:39:45.643Z,16.90
2022-08-28T18:42:14.747Z,16.91
2022-08-28T18:44:41.228Z,16.84
2022-08-28T18:47:07.945Z,16.84
2022-08-28T18:49:34.583Z,16.75
2022-08-28T18:52:01.547Z,16.58
2022-08-28T18:54:29.554Z,16.45
2022-08-28T18:57:01.389Z,16.43
2022-08-28T18:59:32.653Z,16.52
2022-08-28T19:02:00.919Z,16.67
2022-08-28T19:04:27.492Z,16.72
2022-08-28T19:06:53.969Z,16.66
2022-08-28T19:09:20.903Z,16.55
2022-08-28T19:11:48.006Z,16.82
2022-08-28T19:14:14.966Z,16.71
2022-08-28T19:16:41.640Z,16.71
2022-08-28T19:19:08.232Z,16.97
2022-08-28T19:21:35.845Z,17.30
2022-08-28T19:24:03.143Z,17.16
2022-08-28T19:26:29.605Z,17.00
2022-08-28T19:28:56.537Z,17.02
2022-08-28T19:31:24.373Z,17.27
2022-08-28T19:33:51.083Z,17.03
2022-08-28T19:36:18.626Z,17.05
2022-08-28T19:38:45.580Z,16.83
2022-08-28T19:41:13.736Z,16.94
2022-08-28T19:43:43.211Z,16.97
2022-08-28T19:46:18.367Z,16.76
2022-08-28T19:48:46.714Z,16.57
2022-08-28T19:51:17.749Z,16.72
2022-08-28T19:53:56.717Z,16.81
2022-08-28T19:56:26.934Z,16.48
2022-08-28T19:58:54.733Z,16.73
2022-08-28T20:01:21.321Z,16.61
2022-08-28T20:03:47.975Z,16.48
2022-08-28T20:06:14.432Z,16.55
2022-08-28T20:08:41.098Z,16.60
2022-08-28T20:11:07.835Z,16.76
2022-08-28T20:13:35.500Z,16.62
2022-08-28T20:16:05.359Z,16.47
2022-08-28T20:18:33.420Z,16.55
2022-08-28T20:21:00.137Z,16.42
2022-08-28T20:23:26.803Z,16.43
2022-08-28T20:25:53.459Z,16.73
2022-08-28T20:28:20.097Z,16.85
2022-08-28T20:30:46.963Z,16.79
2022-08-28T20:33:13.700Z,16.89
2022-08-28T20:35:40.476Z,16.95
2022-08-28T20:38:07.254Z,16.78
2022-08-28T20:40:34.260Z,16.71
2022-08-28T20:43:00.800Z,16.99
2022-08-28T20:45:28.121Z,16.78
2022-08-28T20:47:54.969Z,16.80
2022-08-28T20:50:21.507Z,16.84
2022-08-28T20:52:48.134Z,16.78
2022-08-28T20:55:15.015Z,17.12
2022-08-28T20:57:41.617Z,17.11
2022-08-28T21:00:09.850Z,16.94
2022-08-28T21:02:36.539Z,17.06
2022-08-28T21:05:03.598Z,16.80
2022-08-28T21:07:30.293Z,16.83
2022-08-28T21:10:06.261Z,17.00
2022-08-28T21:12:38.689Z,17.09
2022-08-28T21:15:07.621Z,17.11
2022-08-28T21:17:34.407Z,16.97
2022-08-28T21:20:05.225Z,16.83
2022-08-28T21:22:35.155Z,16.73
2022-08-28T21:25:02.540Z,16.68
2022-08-28T21:27:29.559Z,16.72
2022-08-28T21:29:58.284Z,16.77
2022-08-28T21:32:26.304Z,16.80
2022-08-28T21:34:53.108Z,16.68
2022-08-28T21:37:19.752Z,16.79
2022-08-28T21:39:46.252Z,16.84
2022-08-28T21:42:12.972Z,16.97
2022-08-28T21:44:40.756Z,17.05
2022-08-28T21:47:14.763Z,16.80
2022-08-28T21:49:41.407Z,16.86
2022-08-28T21:52:07.913Z,16.85
2022-08-28T21:54:34.486Z,16.88
2022-08-28T21:57:00.986Z,16.99
2022-08-28T21:59:30.330Z,16.76
2022-08-28T22:02:04.080Z,16.49
2022-08-28T22:04:31.033Z,16.47
2022-08-28T22:06:57.564Z,16.40
2022-08-28T22:09:24.067Z,16.17
2022-08-28T22:11:50.535Z,16.18
2022-08-28T22:14:17.104Z,16.15
2022-08-28T22:16:44.758Z,16.19
2022-08-28T22:19:11.271Z,16.27
2022-08-28T22:21:56.251Z,16.19
2022-08-28T22:24:23.522Z,16.05
2022-08-28T22:26:50.107Z,16.24
2022-08-28T22:29:23.886Z,16.13
2022-08-28T22:31:50.364Z,16.03
2022-08-28T22:34:16.844Z,16.18
2022-08-28T22:36:43.368Z,16.15
2022-08-28T22:39:10.050Z,16.10
2022-08-28T22:41:37.348Z,15.99
2022-08-28T22:44:04.481Z,15.86
2022-08-28T22:46:31.056Z,15.96
2022-08-28T22:48:57.592Z,15.90
2022-08-28T22:51:24.124Z,16.04
2022-08-28T22:53:50.741Z,15.98
2022-08-28T22:56:17.613Z,15.72
2022-08-28T22:58:44.895Z,15.75
2022-08-28T23:01:19.708Z,15.73
2022-08-28T23:03:46.966Z,15.67
2022-08-28T23:06:13.887Z,15.77
2022-08-28T23:08:40.532Z,15.77
2022-08-28T23:11:07.198Z,15.65
2022-08-28T23:13:34.008Z,15.64
2022-08-28T23:16:01.783Z,15.70
2022-08-28T23:18:29.863Z,15.78
2022-08-28T23:20:57.272Z,15.64
2022-08-28T23:23:24.404Z,15.70
2022-08-28T23:25:51.150Z,15.81
2022-08-28T23:28:18.819Z,15.85
2022-08-28T23:30:48.545Z,15.81
2022-08-28T23:33:23.588Z,15.80
2022-08-28T23:35:51.681Z,15.71
2022-08-28T23:38:18.174Z,15.81
2022-08-28T23:40:44.637Z,15.63
2022-08-28T23:43:11.814Z,15.61
2022-08-28T23:45:42.392Z,15.72
2022-08-28T23:48:09.643Z,15.92
2022-08-28T23:50:40.334Z,15.73
2022-08-28T23:53:08.636Z,15.68
2022-08-28T23:55:36.506Z,15.70
2022-08-28T23:58:04.017Z,15.59
